Time;durP1;ratioP1;P1;durP2;ratioP2;P2;SDS_P1;SDS_P2;PMS_P1;PMS_P2;Temp;Humidity;BMP_temperature;BMP_pressure;BME280_temperature;BME280_humidity;BME280_pressure;Samples;Min_cycle;Max_cycle;Signal;HPM_P1;HPM_P2
2022/02/01 00:01:32;;;;;;;3.40;0.40;;;3.00;99.90;;;;;;6256045;22;20004;-86
2022/02/01 00:04:02;;;;;;;1.57;0.50;;;2.90;99.90;;;;;;6280765;22;20032;-85
2022/02/01 00:09:27;;;;;;;1.80;0.77;;;3.00;99.90;;;;;;6257927;23;20050;-86
2022/02/01 00:14:31;;;;;;;1.50;0.50;;;3.00;99.90;;;;;;6259285;22;20015;-86
2022/02/01 00:17:19;;;;;;;2.33;0.50;;;3.00;99.90;;;;;;6256739;23;19996;-86
2022/02/01 00:36:16;;;;;;;2.50;0.47;;;2.90;99.90;;;;;;6257255;23;20012;-85
2022/02/01 00:38:54;;;;;;;0.83;0.40;;;2.80;99.90;;;;;;6280482;22;20083;-87
2022/02/01 00:41:26;;;;;;;2.47;0.50;;;2.80;99.90;;;;;;6280796;22;19996;-87
2022/02/01 00:43:52;;;;;;;1.00;0.20;;;2.80;99.90;;;;;;6281347;22;20422;-87
2022/02/01 00:46:18;;;;;;;0.60;0.30;;;2.80;99.90;;;;;;6256168;23;20018;-86
2022/02/01 00:48:43;;;;;;;0.50;0.27;;;2.80;99.90;;;;;;6256045;22;20000;-87
2022/02/01 00:51:12;;;;;;;2.43;0.50;;;2.80;99.90;;;;;;6257241;22;20000;-86
2022/02/01 00:53:40;;;;;;;2.67;0.60;;;2.80;99.90;;;;;;6281049;22;20018;-86
2022/02/01 00:56:06;;;;;;;2.47;0.50;;;2.80;99.90;;;;;;6281263;22;20008;-86
2022/02/01 00:58:31;;;;;;;4.50;0.40;;;2.60;99.90;;;;;;6280755;22;20073;-86
2022/02/01 01:00:57;;;;;;;2.37;0.47;;;2.60;99.90;;;;;;6255268;23;20004;-86
2022/02/01 01:03:23;;;;;;;1.33;0.23;;;2.60;99.90;;;;;;6280972;22;19996;-86
2022/02/01 01:05:49;;;;;;;0.70;0.20;;;2.60;99.90;;;;;;6280295;22;20443;-88
2022/02/01 01:08:17;;;;;;;0.53;0.10;;;2.50;99.90;;;;;;6280019;22;20016;-86
2022/02/01 01:10:43;;;;;;;1.07;0.30;;;2.40;99.90;;;;;;6279636;22;20012;-86
2022/02/01 01:16:07;;;;;;;1.57;0.30;;;2.30;99.90;;;;;;6255674;23;20074;-86
2022/02/01 01:54:17;;;;;;;4.00;0.40;;;2.60;99.90;;;;;;6255138;23;20010;-85
2022/02/01 01:56:43;;;;;;;3.90;0.30;;;2.70;99.90;;;;;;6278569;22;20004;-86
2022/02/01 01:59:10;;;;;;;3.57;0.50;;;2.60;99.90;;;;;;6277726;22;20027;-86
2022/02/01 02:01:38;;;;;;;1.77;0.80;;;2.60;99.90;;;;;;6277616;22;20031;-86
2022/02/01 02:04:05;;;;;;;2.93;0.70;;;2.70;99.90;;;;;;6254346;22;19996;-86
2022/02/01 02:06:34;;;;;;;3.63;0.33;;;2.60;99.90;;;;;;6252035;23;20434;-87
2022/02/01 02:09:06;;;;;;;4.10;0.60;;;2.70;99.90;;;;;;6277095;22;20012;-86
2022/02/01 02:14:19;;;;;;;3.10;0.50;;;2.60;99.90;;;;;;6265883;22;20371;-86
2022/02/01 02:16:49;;;;;;;1.53;0.80;;;2.60;99.90;;;;;;6252382;23;20087;-85
2022/02/01 02:19:20;;;;;;;1.73;0.50;;;2.60;99.90;;;;;;6251443;23;20467;-86
2022/02/01 02:22:06;;;;;;;1.63;0.50;;;2.70;99.90;;;;;;6253017;22;20001;-86
2022/02/01 02:24:34;;;;;;;1.17;0.50;;;2.70;99.90;;;;;;6278415;22;20023;-85
2022/02/01 02:27:01;;;;;;;3.00;0.63;;;2.60;99.90;;;;;;6254426;22;20016;-86
2022/02/01 02:29:28;;;;;;;5.80;0.53;;;2.60;99.90;;;;;;6251604;23;20004;-86
2022/02/01 02:31:54;;;;;;;3.27;0.60;;;2.60;99.90;;;;;;6253625;22;19999;-86
2022/02/01 02:34:20;;;;;;;8.97;0.60;;;2.60;99.90;;;;;;6253952;22;19992;-86
2022/02/01 02:37:01;;;;;;;8.03;0.60;;;2.50;99.90;;;;;;6252422;23;20034;-86
2022/02/01 02:47:16;;;;;;;3.77;0.57;;;2.50;99.90;;;;;;6277951;22;20016;-89
2022/02/01 02:49:42;;;;;;;5.17;0.80;;;2.50;99.90;;;;;;6249069;22;20088;-89
2022/02/01 02:52:07;;;;;;;8.00;0.73;;;2.40;99.90;;;;;;6251273;22;19999;-89
2022/02/01 02:54:33;;;;;;;3.73;1.10;;;2.40;99.90;;;;;;6272130;22;20062;-89
2022/02/01 02:57:05;;;;;;;5.83;0.87;;;2.50;99.90;;;;;;6247654;23;20028;-89
2022/02/01 02:59:31;;;;;;;5.28;0.43;;;2.40;99.90;;;;;;6219049;23;20008;-89
2022/02/01 03:01:58;;;;;;;5.50;1.00;;;2.40;99.90;;;;;;6247946;23;20008;-89
2022/02/01 03:04:28;;;;;;;6.60;0.50;;;2.40;99.90;;;;;;6252843;22;20018;-87
2022/02/01 03:06:54;;;;;;;4.30;0.70;;;2.40;99.90;;;;;;6247128;23;20010;-88
2022/02/01 03:09:24;;;;;;;7.50;1.00;;;2.40;99.90;;;;;;6245544;23;20001;-89
2022/02/01 03:11:53;;;;;;;5.40;0.70;;;2.40;99.90;;;;;;6249880;23;20050;-89
2022/02/01 03:14:28;;;;;;;14.93;0.90;;;2.40;99.90;;;;;;6219874;22;20078;-89
2022/02/01 03:22:20;;;;;;;10.00;1.10;;;2.30;99.90;;;;;;6252593;23;20043;-90
2022/02/01 03:24:50;;;;;;;2.70;0.50;;;2.30;99.90;;;;;;6253877;22;20023;-87
2022/02/01 03:27:17;;;;;;;6.27;1.17;;;2.30;99.90;;;;;;6251072;23;20051;-87
2022/02/01 03:29:43;;;;;;;2.90;1.30;;;2.40;99.90;;;;;;6248939;23;20018;-89
2022/02/01 03:32:09;;;;;;;3.30;0.63;;;2.50;99.90;;;;;;6248879;23;20008;-88
2022/02/01 03:34:35;;;;;;;3.67;0.60;;;2.40;99.90;;;;;;6248107;22;20000;-89
2022/02/01 03:37:01;;;;;;;7.23;1.10;;;2.40;99.90;;;;;;6249228;23;20486;-88
2022/02/01 03:39:27;;;;;;;7.80;0.63;;;2.40;99.90;;;;;;6248243;23;19996;-89
2022/02/01 03:41:52;;;;;;;2.93;0.70;;;2.40;99.90;;;;;;6248107;23;20024;-89
2022/02/01 03:44:20;;;;;;;5.77;0.57;;;2.40;99.90;;;;;;6249132;22;20027;-89
2022/02/01 03:46:57;;;;;;;3.57;0.50;;;2.30;99.90;;;;;;6249824;23;20435;-89
2022/02/01 03:49:23;;;;;;;3.83;0.97;;;2.30;99.90;;;;;;6248846;23;20026;-90
2022/02/01 03:51:48;;;;;;;8.90;0.90;;;2.30;99.90;;;;;;6248217;23;20008;-88
2022/02/01 03:54:14;;;;;;;4.43;0.60;;;2.30;99.90;;;;;;6223533;22;20000;-90
2022/02/01 03:56:39;;;;;;;4.40;0.53;;;2.30;99.90;;;;;;6247914;23;20011;-88
2022/02/01 03:59:05;;;;;;;6.90;0.70;;;2.30;99.90;;;;;;6248871;23;20042;-89
2022/02/01 04:01:31;;;;;;;7.03;0.63;;;2.30;99.90;;;;;;6223333;23;20004;-89
2022/02/01 04:03:56;;;;;;;6.77;0.97;;;2.30;99.90;;;;;;6221157;23;20008;-90
2022/02/01 04:06:27;;;;;;;4.57;0.70;;;2.30;99.90;;;;;;6246077;22;20062;-89
2022/02/01 04:08:52;;;;;;;7.43;0.70;;;2.30;99.90;;;;;;6245901;23;20323;-88
2022/02/01 04:11:18;;;;;;;8.13;0.73;;;2.30;99.90;;;;;;6247899;23;20008;-89
2022/02/01 04:13:44;;;;;;;7.17;0.70;;;2.30;99.90;;;;;;6247805;23;20007;-89
2022/02/01 04:16:09;;;;;;;2.90;0.40;;;2.30;99.90;;;;;;6247107;22;20062;-87
2022/02/01 04:18:37;;;;;;;3.53;1.00;;;2.30;99.90;;;;;;6247623;23;20023;-88
2022/02/01 04:21:03;;;;;;;6.47;1.30;;;2.30;99.90;;;;;;6245800;23;20087;-88
2022/02/01 04:23:28;;;;;;;3.97;1.03;;;2.30;99.90;;;;;;6245327;23;20004;-89
2022/02/01 04:25:54;;;;;;;7.47;0.70;;;2.30;99.90;;;;;;6245252;22;20443;-88
2022/02/01 04:28:19;;;;;;;5.20;0.60;;;2.40;99.90;;;;;;6245986;23;20061;-89
2022/02/01 04:30:45;;;;;;;1.43;0.40;;;2.30;99.90;;;;;;6245699;23;20430;-89
2022/02/01 04:33:12;;;;;;;3.80;0.80;;;2.40;99.90;;;;;;6219938;23;20101;-88
2022/02/01 04:35:37;;;;;;;10.33;0.87;;;2.30;99.90;;;;;;6245729;22;20106;-88
2022/02/01 04:38:05;;;;;;;10.40;1.40;;;2.40;99.90;;;;;;6247879;23;20427;-88
2022/02/01 04:40:34;;;;;;;5.00;0.50;;;2.30;99.90;;;;;;6246113;23;20449;-87
2022/02/01 04:43:01;;;;;;;6.43;0.60;;;2.40;99.90;;;;;;6245301;23;20012;-88
2022/02/01 04:45:27;;;;;;;4.53;0.60;;;2.30;99.90;;;;;;6219625;23;20027;-88
2022/02/01 04:47:55;;;;;;;8.17;0.67;;;2.30;99.90;;;;;;6246603;23;20323;-88
2022/02/01 04:50:26;;;;;;;6.20;1.13;;;2.30;99.90;;;;;;6222946;23;20012;-88
2022/02/01 04:52:54;;;;;;;4.53;1.00;;;2.30;99.90;;;;;;6246183;23;20009;-89
2022/02/01 04:55:21;;;;;;;5.87;1.30;;;2.20;99.90;;;;;;6246405;22;20008;-89
2022/02/01 05:00:18;;;;;;;7.37;0.77;;;2.40;99.90;;;;;;6259454;23;20004;-89
2022/02/01 05:02:44;;;;;;;3.30;0.50;;;2.20;99.90;;;;;;6246793;23;20011;-88
2022/02/01 05:05:10;;;;;;;4.87;0.70;;;2.20;99.90;;;;;;6221883;23;20004;-87
2022/02/01 05:07:35;;;;;;;2.10;0.43;;;2.20;99.90;;;;;;6247063;23;20054;-88
2022/02/01 05:10:01;;;;;;;4.50;0.63;;;2.20;99.90;;;;;;6247336;23;20435;-87
2022/02/01 05:12:35;;;;;;;3.97;0.83;;;2.20;99.90;;;;;;6247640;23;20364;-87
2022/02/01 05:15:06;;;;;;;5.90;0.80;;;2.20;99.90;;;;;;6245840;22;20006;-88
2022/02/01 05:17:31;;;;;;;7.57;0.67;;;2.10;99.90;;;;;;6243869;23;20008;-87
2022/02/01 05:19:58;;;;;;;5.03;0.93;;;2.20;99.90;;;;;;6245242;23;20384;-88
2022/02/01 05:22:29;;;;;;;6.13;0.80;;;2.10;99.90;;;;;;6243401;23;20004;-87
2022/02/01 05:24:55;;;;;;;5.07;0.87;;;2.20;99.90;;;;;;6217943;23;20029;-88
2022/02/01 05:27:26;;;;;;;3.20;0.70;;;2.10;99.90;;;;;;6243788;23;20076;-88
2022/02/01 05:29:53;;;;;;;3.00;0.50;;;2.10;99.90;;;;;;6242770;23;20036;-86
2022/02/01 05:34:46;;;;;;;7.93;0.83;;;2.10;99.90;;;;;;6253605;22;20079;-88
2022/02/01 05:37:12;;;;;;;8.97;0.80;;;2.10;99.90;;;;;;6218810;23;20379;-87
2022/02/01 05:39:38;;;;;;;2.97;0.60;;;2.10;99.90;;;;;;6244362;23;20431;-88
2022/02/01 05:42:05;;;;;;;4.90;0.70;;;2.10;99.90;;;;;;6245151;23;20001;-88
2022/02/01 05:44:30;;;;;;;2.73;0.63;;;2.10;99.90;;;;;;6242546;22;20087;-88
2022/02/01 05:46:56;;;;;;;2.80;0.60;;;2.00;99.90;;;;;;6217899;23;20074;-87
2022/02/01 05:49:22;;;;;;;5.70;0.83;;;2.00;99.90;;;;;;6241960;23;20011;-88
2022/02/01 05:51:50;;;;;;;7.83;0.60;;;2.10;99.90;;;;;;6243021;23;20008;-88
2022/02/01 05:54:17;;;;;;;4.67;0.40;;;2.10;99.90;;;;;;6244858;22;20457;-88
2022/02/01 05:56:44;;;;;;;8.90;0.73;;;2.10;99.90;;;;;;6217200;23;20012;-87
2022/02/01 05:59:09;;;;;;;6.07;0.90;;;2.00;99.90;;;;;;6241693;23;20008;-88
2022/02/01 06:01:35;;;;;;;1.60;0.40;;;2.00;99.90;;;;;;6242449;23;19992;-89
2022/02/01 06:04:00;;;;;;;2.53;0.30;;;2.00;99.90;;;;;;6242734;23;20031;-88
2022/02/01 06:06:26;;;;;;;3.70;0.57;;;2.00;99.90;;;;;;6243250;22;20044;-87
2022/02/01 06:08:53;;;;;;;5.67;0.80;;;1.90;99.90;;;;;;6242944;23;20092;-87
2022/02/01 06:11:18;;;;;;;6.20;0.80;;;1.90;99.90;;;;;;6242956;23;20008;-88
2022/02/01 06:13:44;;;;;;;3.83;0.70;;;1.90;99.90;;;;;;6242554;23;20419;-88
2022/02/01 06:16:10;;;;;;;7.77;0.67;;;1.90;99.90;;;;;;6242324;22;20351;-88
2022/02/01 06:18:37;;;;;;;6.60;0.50;;;1.80;99.90;;;;;;6241689;23;20068;-88
2022/02/01 06:21:02;;;;;;;7.53;0.50;;;1.80;99.90;;;;;;6240184;23;20063;-88
2022/02/01 06:23:28;;;;;;;4.47;0.90;;;1.80;99.90;;;;;;6244662;23;20035;-88
2022/02/01 06:25:56;;;;;;;3.73;0.80;;;1.80;99.90;;;;;;6242761;22;20087;-89
2022/02/01 06:28:24;;;;;;;3.70;0.80;;;1.80;99.90;;;;;;6243782;23;20042;-88
2022/02/01 06:30:50;;;;;;;3.97;0.67;;;1.80;99.90;;;;;;6243439;23;20027;-87
2022/02/01 06:33:17;;;;;;;4.20;0.83;;;1.80;99.90;;;;;;6244321;23;20076;-90
2022/02/01 06:35:46;;;;;;;8.60;0.83;;;1.80;99.90;;;;;;6245431;22;20328;-90
2022/02/01 06:38:19;;;;;;;5.47;0.60;;;1.80;99.90;;;;;;6245618;23;20004;-89
2022/02/01 06:40:47;;;;;;;4.25;1.02;;;1.80;99.90;;;;;;6243232;23;20435;-89
2022/02/01 06:43:19;;;;;;;9.87;1.03;;;1.80;99.90;;;;;;6245108;23;20012;-89
2022/02/01 06:45:45;;;;;;;7.05;0.77;;;1.80;99.90;;;;;;6242739;22;20016;-90
2022/02/01 06:48:10;;;;;;;3.00;0.50;;;1.80;99.90;;;;;;6245160;23;20069;-89
2022/02/01 06:50:36;;;;;;;4.40;0.80;;;1.80;99.90;;;;;;6242464;23;20008;-89
2022/02/01 06:53:03;;;;;;;7.83;0.90;;;1.80;99.90;;;;;;6243716;23;20094;-88
2022/02/01 06:55:43;;;;;;;9.27;1.13;;;1.80;99.90;;;;;;6220345;23;20012;-89
2022/02/01 06:58:14;;;;;;;5.53;0.80;;;1.80;99.90;;;;;;6246519;23;20015;-88
2022/02/01 07:00:40;;;;;;;4.13;0.70;;;1.80;99.90;;;;;;6245869;23;20465;-88
2022/02/01 07:03:06;;;;;;;5.67;0.67;;;1.80;99.90;;;;;;6245919;22;20443;-88
2022/02/01 07:05:32;;;;;;;3.50;0.50;;;1.80;99.90;;;;;;6220514;23;20004;-89
2022/02/01 07:07:57;;;;;;;7.97;0.77;;;1.80;99.90;;;;;;6246018;23;20014;-88
2022/02/01 07:10:23;;;;;;;5.20;0.80;;;1.70;99.90;;;;;;6219769;23;20419;-89
2022/02/01 07:12:48;;;;;;;4.23;0.53;;;1.90;99.90;;;;;;6246421;23;20039;-88
2022/02/01 07:15:15;;;;;;;7.97;0.70;;;1.80;99.90;;;;;;6247377;22;20004;-89
2022/02/01 07:17:58;;;;;;;10.10;1.17;;;1.80;99.90;;;;;;6246290;23;20370;-86
2022/02/01 07:20:24;;;;;;;10.27;1.00;;;1.70;99.90;;;;;;6247655;23;20004;-89
2022/02/01 07:22:50;;;;;;;3.03;0.87;;;1.70;99.90;;;;;;6246854;23;19996;-88
2022/02/01 07:25:33;;;;;;;2.80;0.77;;;1.70;99.90;;;;;;6246534;22;20023;-89
2022/02/01 07:28:04;;;;;;;;;;;1.70;99.90;;;;;;6247794;23;20011;-89
2022/02/01 07:30:34;;;;;;;6.77;0.70;;;1.70;99.90;;;;;;6220193;23;19907;-89
2022/02/01 07:33:02;;;;;;;7.03;0.87;;;1.70;99.90;;;;;;6222077;23;20012;-89
2022/02/01 07:35:30;;;;;;;2.83;0.73;;;1.70;99.90;;;;;;6247084;22;20012;-89
2022/02/01 07:37:59;;;;;;;4.00;1.27;;;1.70;99.90;;;;;;6247582;23;20000;-89
2022/02/01 07:40:25;;;;;;;4.13;0.67;;;1.80;99.90;;;;;;6220519;23;20443;-88
2022/02/01 07:42:52;;;;;;;3.53;0.47;;;1.80;99.90;;;;;;6247621;23;20015;-89
2022/02/01 07:45:27;;;;;;;4.80;0.50;;;1.70;99.90;;;;;;6246842;22;20025;-88
2022/02/01 07:47:57;;;;;;;10.80;0.93;;;1.80;99.90;;;;;;6245866;23;20001;-89
2022/02/01 07:50:25;;;;;;;3.17;0.70;;;1.80;99.90;;;;;;6219687;23;20016;-88
2022/02/01 07:52:51;;;;;;;7.67;1.27;;;1.80;99.90;;;;;;6220009;23;20012;-88
2022/02/01 07:55:18;;;;;;;3.63;0.60;;;1.80;99.90;;;;;;6245997;22;20478;-88
2022/02/01 07:57:43;;;;;;;2.97;0.60;;;1.90;99.90;;;;;;6245896;23;20008;-87
2022/02/01 08:00:12;;;;;;;5.93;0.73;;;1.90;99.90;;;;;;6219646;23;20015;-88
2022/02/01 08:02:37;;;;;;;4.60;0.73;;;1.90;99.90;;;;;;6220308;23;20000;-88
2022/02/01 08:05:04;;;;;;;3.63;0.73;;;1.90;99.90;;;;;;6243963;22;20023;-88
2022/02/01 08:07:30;;;;;;;1.13;0.40;;;1.90;99.90;;;;;;6218921;23;20092;-87
2022/02/01 08:09:59;;;;;;;3.37;0.53;;;1.90;99.90;;;;;;6243219;23;20438;-88
2022/02/01 08:20:10;;;;;;;4.30;0.70;;;2.00;99.90;;;;;;6255761;23;20004;-88
2022/02/01 08:25:11;;;;;;;2.50;0.50;;;2.10;99.90;;;;;;6251308;22;20004;-87
2022/02/01 08:27:39;;;;;;;5.43;0.60;;;2.10;99.90;;;;;;6245190;23;20369;-88
2022/02/01 08:30:06;;;;;;;1.77;0.53;;;2.10;99.90;;;;;;6243833;23;20008;-87
2022/02/01 08:32:33;;;;;;;3.73;0.60;;;2.10;99.90;;;;;;6243041;23;20023;-88
2022/02/01 08:34:58;;;;;;;5.93;0.80;;;2.10;99.90;;;;;;6218583;23;20106;-88
2022/02/01 08:37:24;;;;;;;5.37;0.53;;;2.20;99.90;;;;;;6245721;23;19996;-88
2022/02/01 08:39:50;;;;;;;7.17;0.93;;;2.20;99.90;;;;;;6243466;23;20058;-88
2022/02/01 08:42:19;;;;;;;2.50;0.33;;;2.20;99.90;;;;;;6243413;23;20043;-87
2022/02/01 08:44:53;;;;;;;5.70;0.73;;;2.30;99.90;;;;;;6215803;22;20027;-85
2022/02/01 08:47:27;;;;;;;3.57;0.73;;;2.30;99.90;;;;;;6221223;23;19996;-86
2022/02/01 08:49:55;;;;;;;4.37;1.07;;;2.30;99.90;;;;;;6220310;23;20011;-86
2022/02/01 08:52:47;;;;;;;6.37;0.70;;;2.30;99.90;;;;;;6246860;23;19992;-86
2022/02/01 08:55:37;;;;;;;3.73;0.53;;;2.30;99.90;;;;;;6234129;22;20024;-86
2022/02/01 08:58:10;;;;;;;8.17;0.83;;;2.30;99.90;;;;;;6190734;23;20015;-86
2022/02/01 09:00:37;;;;;;;10.10;0.77;;;2.40;99.90;;;;;;6216354;23;20079;-86
2022/02/01 09:03:13;;;;;;;4.53;0.60;;;2.50;99.90;;;;;;6217830;23;19996;-87
2022/02/01 09:05:45;;;;;;;9.13;1.13;;;2.50;99.90;;;;;;6217177;23;20005;-86
2022/02/01 09:08:18;;;;;;;4.73;0.77;;;2.60;99.90;;;;;;6190419;23;20008;-86
2022/02/01 09:10:44;;;;;;;2.90;0.73;;;2.60;99.90;;;;;;6190915;23;20004;-86
2022/02/01 09:13:10;;;;;;;2.07;0.40;;;2.60;99.90;;;;;;6218324;23;20032;-86
2022/02/01 09:15:39;;;;;;;8.43;0.50;;;2.60;99.90;;;;;;6193603;23;20015;-86
2022/02/01 09:18:05;;;;;;;5.13;0.70;;;2.70;99.90;;;;;;6191912;23;20001;-87
2022/02/01 09:20:31;;;;;;;4.30;0.43;;;2.80;99.90;;;;;;6217569;23;20001;-86
2022/02/01 09:23:02;;;;;;;2.07;0.50;;;2.80;99.90;;;;;;6189114;23;20079;-87
2022/02/01 09:25:28;;;;;;;6.73;0.70;;;2.80;99.90;;;;;;6218384;23;20031;-87
2022/02/01 09:27:57;;;;;;;9.20;0.73;;;2.90;99.90;;;;;;6216427;23;20005;-87
2022/02/01 09:30:33;;;;;;;4.60;0.70;;;3.00;99.90;;;;;;6217885;23;20075;-88
2022/02/01 09:33:07;;;;;;;4.43;0.63;;;3.00;99.90;;;;;;6191219;23;20001;-88
2022/02/01 09:35:47;;;;;;;2.73;0.70;;;3.00;99.90;;;;;;6191717;23;20009;-88
2022/02/01 09:38:38;;;;;;;6.47;0.73;;;3.10;99.90;;;;;;6194057;23;20042;-87
2022/02/01 09:41:07;;;;;;;2.27;0.50;;;3.00;99.90;;;;;;6192910;23;20080;-87
2022/02/01 09:43:39;;;;;;;5.10;0.57;;;3.00;99.90;;;;;;6216194;23;20024;-88
2022/02/01 09:46:35;;;;;;;1.65;0.50;;;3.00;99.90;;;;;;6216847;23;20012;-88
2022/02/01 09:49:12;;;;;;;3.43;0.37;;;3.10;99.90;;;;;;6217049;23;20004;-88
2022/02/01 09:52:04;;;;;;;3.90;0.60;;;3.30;99.90;;;;;;6218201;23;20001;-88
2022/02/01 09:54:54;;;;;;;5.53;0.80;;;3.20;99.90;;;;;;6171509;23;20011;-88
2022/02/01 09:57:49;;;;;;;3.77;0.43;;;3.30;99.90;;;;;;6189459;23;20098;-88
2022/02/01 10:00:26;;;;;;;2.30;0.30;;;3.20;99.90;;;;;;6198442;23;20005;-87
2022/02/01 10:02:58;;;;;;;3.47;0.50;;;3.20;99.90;;;;;;6216888;23;20063;-87
2022/02/01 10:05:32;;;;;;;;;;;3.20;99.90;;;;;;6216770;23;20000;-88
2022/02/01 10:08:09;;;;;;;3.50;0.60;;;3.30;99.90;;;;;;6213958;23;19904;-87
2022/02/01 10:11:27;;;;;;;6.30;0.50;;;3.40;99.90;;;;;;6188636;23;20016;-88
2022/02/01 10:14:06;;;;;;;4.70;0.77;;;3.40;99.90;;;;;;6218752;23;20024;-88
2022/02/01 10:22:32;;;;;;;5.07;1.00;;;3.40;99.90;;;;;;6274524;22;20019;-86
2022/02/01 10:25:29;;;;;;;1.60;0.60;;;3.40;99.90;;;;;;6275475;22;20034;-86
2022/02/01 10:28:14;;;;;;;2.43;0.30;;;3.40;99.90;;;;;;6206729;22;20045;-87
2022/02/01 10:30:45;;;;;;;0.77;0.30;;;3.40;99.90;;;;;;6277021;22;20101;-87
2022/02/01 10:34:14;;;;;;;;;;;;;;;;;;;;;
2022/02/01 10:36:50;;;;;;;5.10;0.87;;;3.20;99.90;;;;;;6278266;22;20075;-87
2022/02/01 10:39:44;;;;;;;1.97;0.30;;;3.40;99.90;;;;;;6277890;22;20026;-87
2022/02/01 10:42:35;;;;;;;1.73;0.40;;;3.30;99.90;;;;;;6232823;22;20438;-87
2022/02/01 10:45:15;;;;;;;1.27;0.20;;;3.20;99.90;;;;;;6278040;22;20083;-86
2022/02/01 10:47:44;;;;;;;2.50;0.53;;;3.20;99.90;;;;;;6252225;22;20011;-87
2022/02/01 10:50:28;;;;;;;3.20;0.20;;;3.20;99.90;;;;;;6275218;22;20057;-87
2022/02/01 10:53:00;;;;;;;2.70;0.50;;;3.10;99.90;;;;;;6249696;22;20025;-87
2022/02/01 10:55:31;;;;;;;3.13;0.77;;;3.20;99.90;;;;;;6275602;22;20003;-87
2022/02/01 10:58:19;;;;;;;3.92;0.55;;;3.20;99.90;;;;;;6278671;22;19996;-87
2022/02/01 11:01:08;;;;;;;3.70;0.50;;;3.20;99.90;;;;;;6278453;22;20004;-86
2022/02/01 11:04:13;;;;;;;2.00;0.40;;;3.30;99.90;;;;;;6234233;22;20003;-87
2022/02/01 11:06:44;;;;;;;2.97;0.40;;;3.20;99.90;;;;;;6240979;22;20004;-87
2022/02/01 11:09:26;;;;;;;3.70;0.20;;;3.30;99.90;;;;;;6276683;22;20007;-88
2022/02/01 11:12:37;;;;;;;2.03;0.52;;;3.40;99.90;;;;;;6252822;22;20047;-88
2022/02/01 11:16:12;;;;;;;;;;;;;;;;;;;;;
2022/02/01 11:19:30;;;;;;;0.67;0.30;;;3.60;99.90;;;;;;6211451;22;20074;-87
2022/02/01 11:22:42;;;;;;;2.90;0.77;;;3.70;99.90;;;;;;6253359;22;20091;-88
2022/02/01 11:25:47;;;;;;;2.87;0.30;;;3.80;99.90;;;;;;6253421;22;20434;-88
2022/02/01 11:39:06;;;;;;;1.33;0.37;;;3.50;99.90;;;;;;6281781;22;20010;-86
2022/02/01 11:42:00;;;;;;;;;;;;;;;;;;;;;
2022/02/01 11:44:44;;;;;;;5.20;0.87;;;3.60;99.90;;;;;;6290374;22;20031;-89
2022/02/01 11:47:51;;;;;;;5.60;0.53;;;3.50;99.90;;;;;;6262486;22;20154;-87
2022/02/01 11:51:19;;;;;;;6.07;0.80;;;3.50;99.90;;;;;;6262621;22;19999;-86
2022/02/01 11:54:19;;;;;;;2.67;0.50;;;3.50;99.90;;;;;;6240287;22;20003;-86
2022/02/01 11:56:55;;;;;;;5.37;0.80;;;3.40;99.90;;;;;;6228215;22;20504;-87
2022/02/01 12:00:39;;;;;;;1.17;0.50;;;3.30;99.90;;;;;;6280522;22;20003;-86
2022/02/01 12:11:07;;;;;;;0.33;0.20;;;3.10;99.90;;;;;;6097927;23;20146;-87
2022/02/01 12:25:29;;;;;;;2.50;0.40;;;3.00;99.90;;;;;;6292460;22;20019;-87
2022/02/01 12:27:57;;;;;;;0.47;0.20;;;2.90;99.90;;;;;;6200279;22;20062;-86
2022/02/01 12:30:42;;;;;;;5.20;0.70;;;2.90;99.90;;;;;;6249100;22;20014;-87
2022/02/01 12:34:05;;;;;;;1.63;0.20;;;2.90;99.90;;;;;;6281314;22;20441;-86
2022/02/01 12:36:55;;;;;;;0.63;0.28;;;2.90;99.90;;;;;;6281144;22;20111;-87
2022/02/01 12:39:45;;;;;;;1.50;0.30;;;2.90;99.90;;;;;;6262610;22;20070;-88
2022/02/01 12:42:36;;;;;;;1.63;0.40;;;3.00;99.90;;;;;;6262945;22;20003;-90
2022/02/01 12:48:07;;;;;;;1.67;0.33;;;3.00;99.90;;;;;;6292195;22;20030;-89
2022/02/01 14:34:50;;;;;;;1.20;0.30;;;2.40;99.90;;;;;;6114099;23;20142;-88
2022/02/01 14:47:31;;;;;;;2.50;0.70;;;2.20;99.90;;;;;;6261972;22;20035;-85
2022/02/01 14:50:02;;;;;;;1.77;0.50;;;2.20;99.90;;;;;;6245385;22;20050;-85
2022/02/01 14:52:27;;;;;;;1.10;0.40;;;2.20;99.90;;;;;;6271955;22;20078;-86
2022/02/01 14:54:58;;;;;;;1.03;0.10;;;2.10;99.90;;;;;;6271167;22;20066;-87
2022/02/01 15:13:20;;;;;;;2.20;0.20;;;1.80;99.90;;;;;;6242107;23;20631;-87
2022/02/01 15:15:46;;;;;;;0.83;0.13;;;1.80;99.90;;;;;;6242613;23;20008;-87
2022/02/01 15:18:12;;;;;;;8.27;0.60;;;1.80;99.90;;;;;;6245706;22;20327;-86
2022/02/01 15:20:38;;;;;;;0.43;0.20;;;1.90;99.90;;;;;;6217695;23;20004;-87
2022/02/01 15:23:03;;;;;;;0.57;0.20;;;1.90;99.90;;;;;;6245871;23;20000;-87
2022/02/01 15:25:32;;;;;;;5.23;0.70;;;1.90;99.90;;;;;;6223424;23;20035;-87
2022/02/01 15:27:58;;;;;;;3.87;0.63;;;1.90;99.90;;;;;;6219079;23;20823;-87
2022/02/01 15:30:31;;;;;;;4.07;0.50;;;2.00;99.90;;;;;;6245010;22;20000;-88
2022/02/01 15:32:56;;;;;;;1.00;0.37;;;1.90;99.90;;;;;;6244597;23;20011;-87
2022/02/01 15:35:25;;;;;;;1.17;0.37;;;1.80;99.90;;;;;;6244775;22;20072;-88
2022/02/01 15:37:52;;;;;;;0.53;0.17;;;1.90;99.90;;;;;;6217891;23;20011;-87
2022/02/01 15:54:28;;;;;;;2.30;0.40;;;2.00;99.90;;;;;;6245864;22;20019;-87
2022/02/01 15:54:48;;;;;;;0.40;0.20;;;2.10;99.90;;;;;;6244192;23;20611;-87
2022/02/01 15:57:26;;;;;;;0.60;0.13;;;2.00;99.90;;;;;;6217613;23;20047;-87
2022/02/01 15:59:55;;;;;;;2.30;0.23;;;2.00;99.90;;;;;;6218497;23;20031;-87
2022/02/01 16:02:21;;;;;;;1.00;0.50;;;2.00;99.90;;;;;;6219198;23;20008;-88
2022/02/01 16:04:55;;;;;;;0.20;0.10;;;2.10;99.90;;;;;;6218622;23;20000;-89
2022/02/01 16:07:27;;;;;;;0.57;0.20;;;2.10;99.90;;;;;;6245837;23;20350;-89
2022/02/01 16:12:32;;;;;;;2.73;0.77;;;2.10;99.90;;;;;;6246045;22;20092;-88
2022/02/01 16:15:04;;;;;;;3.17;1.23;;;2.10;99.90;;;;;;6215712;23;20026;-87
2022/02/01 16:17:31;;;;;;;3.70;0.50;;;2.10;99.90;;;;;;6218018;23;20012;-86
2022/02/01 16:19:57;;;;;;;0.50;0.20;;;2.30;99.90;;;;;;6217488;23;20000;-86
2022/02/01 16:22:23;;;;;;;3.47;0.40;;;2.10;99.90;;;;;;6217891;23;20449;-87
2022/02/01 16:24:50;;;;;;;1.27;0.23;;;2.10;99.90;;;;;;6218180;23;20000;-85
2022/02/01 16:27:15;;;;;;;2.10;0.40;;;2.10;99.90;;;;;;6217531;23;20333;-86
2022/02/01 16:29:41;;;;;;;1.27;0.53;;;2.30;99.90;;;;;;6217595;23;20036;-87
2022/02/01 16:32:08;;;;;;;1.30;0.70;;;2.20;99.90;;;;;;6244541;22;20001;-87
2022/02/01 16:34:34;;;;;;;2.50;0.30;;;2.20;99.90;;;;;;6244845;22;20011;-86
2022/02/01 16:37:00;;;;;;;5.00;0.43;;;2.20;99.90;;;;;;6213388;23;20039;-86
2022/02/01 16:39:32;;;;;;;0.67;0.33;;;2.20;99.90;;;;;;6216894;23;20001;-88
2022/02/01 16:42:00;;;;;;;0.57;0.25;;;2.40;99.90;;;;;;6219574;23;20000;-86
2022/02/01 16:44:26;;;;;;;0.50;0.20;;;2.30;99.90;;;;;;6222083;23;20016;-86
2022/02/01 16:46:53;;;;;;;0.30;0.20;;;2.30;99.90;;;;;;6217607;23;20078;-87
2022/02/01 16:49:21;;;;;;;0.73;0.40;;;2.30;99.90;;;;;;6217035;23;20083;-87
2022/02/01 16:51:48;;;;;;;0.80;0.33;;;2.40;99.90;;;;;;6244340;23;20054;-87
2022/02/01 16:54:18;;;;;;;0.90;0.20;;;2.30;99.90;;;;;;6217475;23;20008;-86
2022/02/01 16:56:57;;;;;;;0.70;0.30;;;2.40;99.90;;;;;;6243350;23;20001;-87
2022/02/01 16:59:25;;;;;;;0.80;0.27;;;2.50;99.90;;;;;;6216028;23;20008;-87
2022/02/01 17:01:56;;;;;;;1.13;0.30;;;2.50;99.90;;;;;;6216799;23;20039;-87
2022/02/01 17:04:22;;;;;;;0.97;0.30;;;2.40;99.90;;;;;;6243623;23;20004;-87
2022/02/01 17:06:50;;;;;;;1.57;0.30;;;2.60;99.90;;;;;;6243701;23;20000;-87
2022/02/01 17:09:18;;;;;;;0.50;0.10;;;2.50;99.90;;;;;;6217183;23;20015;-87
2022/02/01 17:21:24;;;;;;;4.43;0.83;;;2.60;99.90;;;;;;6239974;23;20299;-87
2022/02/01 17:22:16;;;;;;;;;;;2.70;99.90;;;;;;6244031;22;20023;-88
2022/02/01 17:24:42;;;;;;;0.63;0.37;;;2.70;99.90;;;;;;6242230;22;20646;-87
2022/02/01 17:27:07;;;;;;;1.43;0.30;;;2.70;99.90;;;;;;6217381;23;20004;-87
2022/02/01 17:29:37;;;;;;;0.13;0.10;;;2.70;99.90;;;;;;6217461;23;20004;-87
2022/02/01 17:32:03;;;;;;;0.13;0.10;;;2.70;99.90;;;;;;6243017;23;20004;-87
2022/02/01 17:34:28;;;;;;;0.70;0.23;;;2.70;99.90;;;;;;6217843;23;20053;-86
2022/02/01 17:36:54;;;;;;;0.17;0.10;;;2.80;99.90;;;;;;6214798;23;20394;-88
2022/02/01 17:39:20;;;;;;;0.87;0.23;;;2.60;99.90;;;;;;6213830;23;20478;-87
2022/02/01 17:41:45;;;;;;;1.50;0.27;;;2.70;99.90;;;;;;6244271;22;20000;-87
2022/02/01 17:44:11;;;;;;;0.37;0.10;;;2.70;99.90;;;;;;6243592;22;20050;-86
2022/02/01 17:46:41;;;;;;;0.57;0.20;;;2.80;99.90;;;;;;6217179;23;20032;-87
2022/02/01 17:49:08;;;;;;;0.63;0.20;;;2.70;99.90;;;;;;6242147;22;20011;-87
2022/02/01 17:54:22;;;;;;;1.20;0.40;;;2.80;99.90;;;;;;6253910;23;20346;-86
2022/02/01 17:56:49;;;;;;;0.77;0.20;;;2.60;99.90;;;;;;6243354;22;20075;-88
2022/02/01 17:59:15;;;;;;;1.13;0.30;;;2.60;99.90;;;;;;6216003;23;20118;-89
2022/02/01 18:01:42;;;;;;;1.20;0.20;;;2.60;99.90;;;;;;6244007;23;20007;-86
2022/02/01 18:04:10;;;;;;;1.03;0.20;;;2.60;99.90;;;;;;6217449;23;20054;-87
2022/02/01 18:06:35;;;;;;;0.60;0.20;;;2.60;99.90;;;;;;6217517;23;20046;-87
2022/02/01 18:09:01;;;;;;;0.50;0.20;;;2.60;99.90;;;;;;6216710;23;20012;-87
2022/02/01 18:11:49;;;;;;;2.53;0.40;;;2.50;99.90;;;;;;6216692;23;20607;-86